LFPO 211500Z 01005KT 330V040 9999 FEW046 BKN054 27/15 Q1019 NOSIG

ElémentsDécodage
LFPO Station météo située sur l'aérodrome de PARIS Orly
211500Z émis le 21 du mois à 15h00 UTC
01005KT vent du 010°, 05 noeuds
330V040 vent de direction variable entre 330° et 040°
9999 visibilité horizontale supérieure à 10 Km
FEW046 nuages rares (1/8 à 2/8) à 4600 pieds
BKN054 nuages morcelés (5/8 à 7/8) à 5400 pieds
27/15 température 27°C, point de rosée 15°C
 soit une humidité relative de 48%
Q1019 la pression au niveau de la mer (QNH) est de 1019 hPa
NOSIG Pas de changement significatif prévu au cours des deux heures suivant l'heure de l'observation